createdAt,value
2023-03-07T00:00:59.986Z,3.60
2023-03-07T00:03:26.780Z,3.60
2023-03-07T00:06:03.874Z,3.60
2023-03-07T00:08:30.751Z,3.60
2023-03-07T00:11:00.413Z,3.60
2023-03-07T00:13:28.648Z,3.50
2023-03-07T00:15:55.308Z,3.50
2023-03-07T00:18:21.926Z,3.40
2023-03-07T00:20:56.641Z,3.40
2023-03-07T00:23:23.305Z,3.40
2023-03-07T00:26:00.126Z,3.30
2023-03-07T00:28:26.940Z,3.30
2023-03-07T00:30:53.708Z,3.30
2023-03-07T00:33:20.336Z,3.30
2023-03-07T00:35:54.340Z,3.30
2023-03-07T00:38:20.950Z,3.40
2023-03-07T00:40:47.616Z,3.40
2023-03-07T00:43:14.247Z,3.30
2023-03-07T00:45:40.893Z,3.30
2023-03-07T00:48:07.537Z,3.30
2023-03-07T00:50:34.146Z,3.30
2023-03-07T00:53:00.853Z,3.30
2023-03-07T00:55:27.436Z,3.20
2023-03-07T00:57:54.059Z,3.10
2023-03-07T01:00:20.863Z,3.10
2023-03-07T01:02:47.568Z,3.10
2023-03-07T01:05:14.220Z,3.10
2023-03-07T01:07:40.895Z,3.20
2023-03-07T01:10:07.691Z,3.20
2023-03-07T01:12:34.397Z,3.20
2023-03-07T01:15:01.137Z,3.20
2023-03-07T01:17:27.730Z,3.20
2023-03-07T01:19:54.363Z,3.20
2023-03-07T01:22:20.959Z,3.20
2023-03-07T01:24:47.621Z,3.20
2023-03-07T01:27:14.289Z,3.20
2023-03-07T01:29:40.908Z,3.20
2023-03-07T01:32:07.672Z,3.10
2023-03-07T01:34:34.375Z,3.10
2023-03-07T01:37:00.988Z,3.00
2023-03-07T01:39:27.626Z,3.00
2023-03-07T01:41:54.222Z,2.90
2023-03-07T01:44:27.433Z,2.90
2023-03-07T01:46:54.498Z,2.90
2023-03-07T01:49:24.169Z,2.80
2023-03-07T01:51:56.821Z,2.80
2023-03-07T01:54:24.565Z,2.80
2023-03-07T01:56:52.139Z,2.70
2023-03-07T01:59:22.444Z,2.60
2023-03-07T02:01:49.177Z,2.50
2023-03-07T02:04:18.401Z,2.40
2023-03-07T02:06:45.052Z,2.40
2023-03-07T02:09:15.849Z,2.40
2023-03-07T02:11:43.562Z,2.40
2023-03-07T02:14:10.398Z,2.40
2023-03-07T02:16:38.653Z,2.40
2023-03-07T02:19:11.348Z,2.40
2023-03-07T02:21:48.570Z,2.30
2023-03-07T02:24:22.307Z,2.40
2023-03-07T02:26:51.039Z,2.40
2023-03-07T02:29:17.614Z,2.50
2023-03-07T02:31:44.822Z,2.50
2023-03-07T02:34:22.073Z,2.50
2023-03-07T02:36:50.112Z,2.50
2023-03-07T02:39:16.977Z,2.50
2023-03-07T02:41:43.742Z,2.40
2023-03-07T02:44:10.378Z,2.20
2023-03-07T02:46:37.030Z,2.10
2023-03-07T02:49:03.650Z,2.10
2023-03-07T02:51:30.297Z,2.10
2023-03-07T02:53:57.328Z,2.10
2023-03-07T02:56:23.963Z,2.10
2023-03-07T02:58:50.597Z,2.00
2023-03-07T03:01:17.241Z,2.00
2023-03-07T03:03:44.666Z,2.00
2023-03-07T03:06:11.325Z,1.90
2023-03-07T03:08:37.974Z,1.90
2023-03-07T03:11:04.639Z,1.90
2023-03-07T03:13:31.251Z,1.80
2023-03-07T03:15:57.976Z,1.80
2023-03-07T03:18:27.197Z,1.70
2023-03-07T03:20:53.815Z,1.70
2023-03-07T03:23:20.473Z,1.60
2023-03-07T03:25:56.818Z,1.60
2023-03-07T03:28:23.477Z,1.60
2023-03-07T03:31:00.116Z,1.60
2023-03-07T03:33:27.835Z,1.50
2023-03-07T03:35:55.191Z,1.50
2023-03-07T03:38:21.862Z,1.40
2023-03-07T03:40:48.530Z,1.40
2023-03-07T03:43:15.196Z,1.30
2023-03-07T03:45:42.608Z,1.30
2023-03-07T03:48:09.443Z,1.30
2023-03-07T03:50:36.156Z,1.30
2023-03-07T03:53:02.825Z,1.30
2023-03-07T03:55:29.440Z,1.30
2023-03-07T03:57:56.039Z,1.30
2023-03-07T04:00:23.777Z,1.30
2023-03-07T04:02:50.649Z,1.30
2023-03-07T04:05:17.373Z,1.30
2023-03-07T04:07:44.106Z,1.20
2023-03-07T04:10:11.051Z,1.20
2023-03-07T04:12:37.665Z,1.20
2023-03-07T04:15:05.064Z,1.20
2023-03-07T04:17:31.635Z,1.20
2023-03-07T04:19:59.301Z,1.20
2023-03-07T04:22:25.910Z,1.20
2023-03-07T04:24:52.499Z,1.20
2023-03-07T04:27:19.137Z,1.20
2023-03-07T04:29:45.789Z,1.20
2023-03-07T04:32:12.387Z,1.30
2023-03-07T04:34:39.097Z,1.30
2023-03-07T04:37:05.696Z,1.40
2023-03-07T04:39:32.319Z,1.40
2023-03-07T04:41:58.925Z,1.40
2023-03-07T04:44:25.664Z,1.30
2023-03-07T04:46:52.295Z,1.30
2023-03-07T04:49:18.990Z,1.20
2023-03-07T04:51:45.583Z,1.30
2023-03-07T04:54:12.208Z,1.30
2023-03-07T04:56:38.830Z,1.30
2023-03-07T04:59:05.487Z,1.30
2023-03-07T05:01:32.256Z,1.40
2023-03-07T05:03:58.991Z,1.30
2023-03-07T05:06:25.696Z,1.40
2023-03-07T05:08:52.406Z,1.30
2023-03-07T05:11:19.009Z,1.30
2023-03-07T05:13:45.662Z,1.30
2023-03-07T05:16:12.389Z,1.30
2023-03-07T05:18:39.040Z,1.30
2023-03-07T05:21:05.703Z,1.40
2023-03-07T05:23:32.346Z,1.40
2023-03-07T05:25:59.089Z,1.30
2023-03-07T05:28:25.889Z,1.30
2023-03-07T05:30:52.563Z,1.30
2023-03-07T05:33:19.272Z,1.30
2023-03-07T05:35:46.899Z,1.30
2023-03-07T05:38:14.094Z,1.30
2023-03-07T05:40:40.765Z,1.20
2023-03-07T05:43:07.450Z,1.10
2023-03-07T05:45:34.169Z,1.10
2023-03-07T05:48:01.026Z,1.00
2023-03-07T05:50:27.659Z,1.00
2023-03-07T05:52:54.413Z,1.00
2023-03-07T05:55:21.064Z,1.00
2023-03-07T05:57:47.878Z,1.00
2023-03-07T06:00:16.015Z,1.00
2023-03-07T06:02:42.809Z,1.10
2023-03-07T06:05:09.613Z,1.10
2023-03-07T06:07:36.204Z,1.20
2023-03-07T06:10:03.001Z,1.20
2023-03-07T06:12:29.608Z,1.20
2023-03-07T06:14:56.252Z,1.20
2023-03-07T06:17:22.877Z,1.30
2023-03-07T06:19:49.490Z,1.30
2023-03-07T06:22:16.130Z,1.40
2023-03-07T06:24:42.884Z,1.30
2023-03-07T06:27:09.637Z,1.30
2023-03-07T06:29:36.573Z,1.40
2023-03-07T06:32:03.516Z,1.50
2023-03-07T06:34:30.105Z,1.60
2023-03-07T06:36:56.831Z,1.70
2023-03-07T06:39:23.551Z,1.70
2023-03-07T06:41:50.708Z,1.70
2023-03-07T06:44:17.957Z,1.70
2023-03-07T06:46:45.045Z,1.70
2023-03-07T06:49:11.881Z,1.80
2023-03-07T06:51:38.742Z,1.90
2023-03-07T06:54:05.397Z,2.00
2023-03-07T06:56:34.320Z,2.10
2023-03-07T06:59:01.063Z,2.20
2023-03-07T07:01:27.793Z,2.30
2023-03-07T07:03:54.410Z,2.40
2023-03-07T07:06:21.068Z,2.40
2023-03-07T07:08:47.789Z,2.50
2023-03-07T07:11:14.435Z,2.60
2023-03-07T07:13:41.047Z,2.60
2023-03-07T07:16:08.238Z,2.60
2023-03-07T07:18:35.229Z,2.70
2023-03-07T07:21:01.861Z,2.80
2023-03-07T07:23:29.028Z,2.90
2023-03-07T07:25:55.723Z,3.00
2023-03-07T07:28:22.839Z,3.00
2023-03-07T07:30:49.483Z,3.10
2023-03-07T07:33:16.286Z,3.20
2023-03-07T07:35:43.605Z,3.30
2023-03-07T07:38:10.340Z,3.40
2023-03-07T07:40:37.054Z,3.50
2023-03-07T07:43:03.725Z,3.70
2023-03-07T07:45:30.330Z,3.70
2023-03-07T07:47:56.977Z,3.80
2023-03-07T07:50:23.756Z,3.90
2023-03-07T07:52:52.456Z,4.00
2023-03-07T07:55:19.043Z,4.00
2023-03-07T07:57:45.709Z,4.00
2023-03-07T08:00:12.906Z,4.10
2023-03-07T08:02:39.666Z,4.30
2023-03-07T08:05:07.562Z,4.30
2023-03-07T08:07:34.182Z,4.40
2023-03-07T08:10:00.812Z,4.40
2023-03-07T08:12:28.065Z,4.50
2023-03-07T08:14:54.744Z,4.50
2023-03-07T08:17:21.387Z,4.60
2023-03-07T08:19:48.050Z,4.60
2023-03-07T08:22:14.658Z,4.60
2023-03-07T08:24:41.337Z,4.60
2023-03-07T08:27:08.477Z,4.70
2023-03-07T08:29:35.367Z,4.80
2023-03-07T08:32:02.074Z,4.90
2023-03-07T08:34:28.754Z,5.00
2023-03-07T08:36:55.482Z,5.00
2023-03-07T08:39:22.105Z,5.10
2023-03-07T08:41:48.718Z,5.10
2023-03-07T08:44:15.324Z,5.20
2023-03-07T08:46:42.067Z,5.20
2023-03-07T08:49:08.720Z,5.30
2023-03-07T08:51:35.337Z,5.30
2023-03-07T08:54:04.330Z,5.30
2023-03-07T08:56:30.987Z,5.30
2023-03-07T08:58:57.640Z,5.40
2023-03-07T09:01:24.451Z,5.50
2023-03-07T09:03:51.133Z,5.60
2023-03-07T09:06:19.159Z,5.70
2023-03-07T09:08:46.438Z,5.80
2023-03-07T09:11:13.528Z,5.80
2023-03-07T09:13:51.053Z,6.00
2023-03-07T09:16:18.652Z,6.10
2023-03-07T09:18:45.275Z,6.10
2023-03-07T09:21:11.985Z,6.20
2023-03-07T09:23:38.581Z,6.30
2023-03-07T09:26:06.016Z,6.40
2023-03-07T09:28:32.623Z,6.50
2023-03-07T09:30:59.243Z,6.70
2023-03-07T09:33:25.906Z,6.70
2023-03-07T09:35:52.526Z,7.00
2023-03-07T09:38:19.242Z,7.10
2023-03-07T09:40:47.280Z,7.20
2023-03-07T09:43:21.193Z,7.10
2023-03-07T09:46:04.787Z,7.10
2023-03-07T09:48:43.710Z,7.30
2023-03-07T09:51:15.579Z,7.20
2023-03-07T09:53:47.861Z,7.20
2023-03-07T09:56:21.597Z,7.50
2023-03-07T09:58:51.631Z,7.30
2023-03-07T10:01:21.472Z,7.50
2023-03-07T10:03:52.430Z,7.70
2023-03-07T10:06:24.946Z,7.90
2023-03-07T10:08:52.334Z,7.90
2023-03-07T10:11:18.993Z,8.00
2023-03-07T10:13:57.771Z,7.80
2023-03-07T10:16:36.050Z,7.80
2023-03-07T10:19:29.337Z,8.20
2023-03-07T10:22:08.178Z,8.20
2023-03-07T10:24:37.885Z,8.20
2023-03-07T10:27:04.486Z,8.10
2023-03-07T10:29:34.583Z,7.90
2023-03-07T10:32:33.851Z,7.90
2023-03-07T10:35:13.473Z,7.90
2023-03-07T10:37:48.334Z,8.00
2023-03-07T10:40:21.877Z,8.10
2023-03-07T10:42:48.674Z,8.00
2023-03-07T10:45:15.320Z,8.00
2023-03-07T10:47:42.475Z,8.00
2023-03-07T10:50:31.438Z,8.20
2023-03-07T10:53:00.143Z,8.30
2023-03-07T10:55:32.894Z,8.30
2023-03-07T10:58:14.927Z,8.30
2023-03-07T11:00:44.336Z,8.30
2023-03-07T11:03:22.279Z,8.40
2023-03-07T11:05:48.950Z,8.40
2023-03-07T11:08:25.132Z,8.30
2023-03-07T11:10:51.951Z,8.40
2023-03-07T11:13:19.899Z,8.30
2023-03-07T11:15:46.859Z,8.20
2023-03-07T11:18:37.582Z,8.20
2023-03-07T11:21:04.501Z,8.40
2023-03-07T11:23:31.979Z,8.30
2023-03-07T11:26:14.702Z,8.10
2023-03-07T11:28:41.489Z,7.90
2023-03-07T11:31:18.151Z,7.90
2023-03-07T11:33:59.226Z,8.00
2023-03-07T11:36:35.083Z,8.10
2023-03-07T11:39:07.205Z,7.90
2023-03-07T11:41:37.949Z,7.80
2023-03-07T11:44:10.724Z,7.90
2023-03-07T11:46:43.568Z,7.70
2023-03-07T11:49:10.199Z,7.60
2023-03-07T11:51:49.020Z,7.70
2023-03-07T11:54:29.752Z,7.70
2023-03-07T11:57:00.138Z,7.70
2023-03-07T11:59:26.834Z,7.60
2023-03-07T12:01:55.842Z,7.80
2023-03-07T12:04:41.436Z,7.90
2023-03-07T12:07:14.198Z,7.90
2023-03-07T12:09:54.430Z,7.80
2023-03-07T12:12:40.228Z,7.80
2023-03-07T12:15:28.113Z,7.80
2023-03-07T12:18:14.973Z,7.80
2023-03-07T12:20:48.954Z,7.80
2023-03-07T12:23:15.541Z,8.00
2023-03-07T12:25:43.338Z,8.10
2023-03-07T12:28:31.132Z,8.10
2023-03-07T12:30:57.908Z,8.20
2023-03-07T12:33:36.243Z,8.20
2023-03-07T12:36:08.317Z,8.10
2023-03-07T12:38:42.017Z,8.00
2023-03-07T12:41:19.651Z,8.00
2023-03-07T12:43:48.387Z,8.00
2023-03-07T12:46:23.249Z,7.90
2023-03-07T12:49:02.032Z,8.10
2023-03-07T12:51:33.440Z,8.20
2023-03-07T12:54:00.146Z,8.30
2023-03-07T12:56:30.421Z,8.10
2023-03-07T12:59:00.522Z,8.10
2023-03-07T13:01:33.290Z,8.10
2023-03-07T13:04:09.177Z,8.00
2023-03-07T13:06:38.312Z,8.30
2023-03-07T13:09:05.512Z,8.30
2023-03-07T13:11:33.965Z,8.20
2023-03-07T13:14:04.223Z,8.30
2023-03-07T13:16:41.480Z,8.50
2023-03-07T13:19:27.000Z,8.40
2023-03-07T13:21:53.701Z,8.50
2023-03-07T13:24:33.934Z,8.40
2023-03-07T13:27:01.086Z,8.50
2023-03-07T13:29:46.713Z,8.40
2023-03-07T13:32:45.760Z,8.40
2023-03-07T13:35:12.490Z,8.40
2023-03-07T13:37:51.366Z,8.30
2023-03-07T13:40:24.049Z,8.20
2023-03-07T13:42:51.207Z,8.10
2023-03-07T13:45:36.709Z,8.20
2023-03-07T13:48:04.047Z,8.20
2023-03-07T13:50:36.599Z,8.20
2023-03-07T13:53:09.110Z,8.20
2023-03-07T13:55:41.073Z,8.20
2023-03-07T13:58:17.953Z,8.50
2023-03-07T14:00:53.094Z,8.60
2023-03-07T14:03:30.901Z,8.50
2023-03-07T14:06:02.805Z,8.50
2023-03-07T14:08:32.904Z,8.60
2023-03-07T14:10:59.971Z,8.60
2023-03-07T14:13:32.273Z,8.50
2023-03-07T14:16:11.763Z,8.50
2023-03-07T14:18:57.311Z,8.50
2023-03-07T14:21:31.543Z,8.80
2023-03-07T14:24:17.443Z,8.80
2023-03-07T14:26:50.563Z,8.90
2023-03-07T14:29:19.470Z,8.90
2023-03-07T14:31:46.904Z,8.70
2023-03-07T14:34:26.804Z,8.70
2023-03-07T14:37:01.042Z,8.60
2023-03-07T14:39:47.949Z,8.60
2023-03-07T14:42:20.578Z,8.60
2023-03-07T14:44:56.742Z,8.50
2023-03-07T14:47:29.448Z,8.50
2023-03-07T14:50:02.158Z,8.60
2023-03-07T14:52:31.820Z,8.70
2023-03-07T14:55:03.129Z,8.90
2023-03-07T14:57:32.905Z,8.80
2023-03-07T15:00:20.005Z,8.70
2023-03-07T15:02:49.779Z,8.60
2023-03-07T15:05:17.318Z,8.60
2023-03-07T15:07:44.560Z,8.70
2023-03-07T15:10:16.461Z,8.70
2023-03-07T15:12:44.585Z,8.70
2023-03-07T15:15:18.393Z,8.60
2023-03-07T15:17:47.256Z,8.60
2023-03-07T15:20:19.531Z,8.50
2023-03-07T15:22:46.611Z,8.40
2023-03-07T15:25:23.980Z,8.40
2023-03-07T15:28:02.700Z,8.40
2023-03-07T15:30:32.096Z,8.40
2023-03-07T15:33:14.228Z,8.40
2023-03-07T15:35:41.355Z,8.40
2023-03-07T15:38:14.941Z,8.40
2023-03-07T15:40:41.681Z,8.30
2023-03-07T15:43:16.533Z,8.30
2023-03-07T15:45:44.896Z,8.40
2023-03-07T15:48:31.811Z,8.40
2023-03-07T15:50:59.940Z,8.40
2023-03-07T15:53:46.262Z,8.30
2023-03-07T15:56:33.938Z,8.30
2023-03-07T15:59:02.507Z,8.30
2023-03-07T16:01:29.268Z,8.30
2023-03-07T16:03:57.437Z,8.20
2023-03-07T16:06:42.642Z,8.20
2023-03-07T16:09:13.844Z,8.20
2023-03-07T16:11:40.815Z,8.00
2023-03-07T16:14:26.301Z,7.90
2023-03-07T16:16:54.559Z,7.90
2023-03-07T16:19:21.296Z,7.90
2023-03-07T16:21:48.004Z,7.80
2023-03-07T16:24:14.705Z,7.70
2023-03-07T16:26:42.535Z,7.50
2023-03-07T16:29:19.850Z,7.40
2023-03-07T16:31:46.640Z,7.30
2023-03-07T16:34:17.998Z,7.20
2023-03-07T16:36:44.719Z,7.20
2023-03-07T16:39:12.154Z,7.10
2023-03-07T16:41:42.666Z,7.00
2023-03-07T16:44:20.372Z,6.90
2023-03-07T16:46:51.488Z,6.80
2023-03-07T16:49:18.551Z,6.70
2023-03-07T16:51:48.990Z,6.60
2023-03-07T16:54:19.971Z,6.50
2023-03-07T16:56:49.283Z,6.40
2023-03-07T16:59:16.919Z,6.30
2023-03-07T17:01:45.470Z,6.20
2023-03-07T17:04:12.264Z,6.10
2023-03-07T17:06:39.848Z,6.10
2023-03-07T17:09:07.003Z,5.90
2023-03-07T17:11:33.646Z,5.80
2023-03-07T17:14:02.710Z,5.80
2023-03-07T17:16:29.695Z,5.70
2023-03-07T17:18:56.286Z,5.60
2023-03-07T17:21:22.961Z,5.60
2023-03-07T17:23:50.153Z,5.50
2023-03-07T17:26:19.121Z,5.50
2023-03-07T17:28:46.032Z,5.40
2023-03-07T17:31:12.686Z,5.40
2023-03-07T17:33:39.321Z,5.30
2023-03-07T17:36:06.159Z,5.30
2023-03-07T17:38:33.831Z,5.20
2023-03-07T17:41:00.529Z,5.10
2023-03-07T17:43:27.147Z,5.10
2023-03-07T17:45:53.848Z,5.00
2023-03-07T17:48:20.455Z,5.10
2023-03-07T17:50:47.135Z,5.00
2023-03-07T17:53:13.830Z,4.90
2023-03-07T17:55:40.494Z,4.90
2023-03-07T17:58:10.849Z,4.80
2023-03-07T18:00:38.299Z,4.70
2023-03-07T18:03:05.624Z,4.60
2023-03-07T18:05:32.329Z,4.60
2023-03-07T18:07:59.063Z,4.60
2023-03-07T18:10:25.786Z,4.60
2023-03-07T18:12:53.762Z,4.50
2023-03-07T18:15:22.018Z,4.50
2023-03-07T18:17:49.460Z,4.40
2023-03-07T18:20:17.171Z,4.20
2023-03-07T18:22:43.801Z,4.10
2023-03-07T18:25:12.059Z,4.10
2023-03-07T18:27:38.745Z,4.00
2023-03-07T18:30:05.688Z,4.00
2023-03-07T18:32:34.085Z,4.00
2023-03-07T18:35:00.866Z,3.90
2023-03-07T18:37:28.145Z,3.90
2023-03-07T18:39:54.751Z,3.80
2023-03-07T18:42:21.425Z,3.80
2023-03-07T18:44:48.104Z,3.70
2023-03-07T18:47:17.019Z,3.70
2023-03-07T18:49:43.728Z,3.60
2023-03-07T18:52:10.461Z,3.60
2023-03-07T18:54:37.181Z,3.50
2023-03-07T18:57:03.912Z,3.40
2023-03-07T18:59:30.604Z,3.30
2023-03-07T19:02:02.847Z,3.30
2023-03-07T19:04:30.276Z,3.30
2023-03-07T19:06:58.122Z,3.20
2023-03-07T19:09:26.148Z,3.20
2023-03-07T19:11:52.885Z,3.20
2023-03-07T19:14:19.522Z,3.20
2023-03-07T19:16:47.246Z,3.10
2023-03-07T19:19:14.091Z,3.10
2023-03-07T19:21:40.750Z,2.90
2023-03-07T19:24:07.757Z,2.90
2023-03-07T19:26:34.396Z,2.90
2023-03-07T19:29:01.004Z,2.90
2023-03-07T19:31:28.855Z,2.80
2023-03-07T19:33:55.848Z,2.80
2023-03-07T19:36:27.017Z,2.80
2023-03-07T19:38:55.436Z,2.80
2023-03-07T19:41:23.455Z,2.60
2023-03-07T19:43:50.409Z,2.50
2023-03-07T19:46:18.063Z,2.50
2023-03-07T19:48:45.151Z,2.60
2023-03-07T19:51:16.021Z,2.60
2023-03-07T19:53:46.615Z,2.50
2023-03-07T19:56:19.752Z,2.50
2023-03-07T20:09:57.103Z,2.20
2023-03-07T20:12:23.794Z,2.10
2023-03-07T20:16:32.739Z,2.10
2023-03-07T20:23:22.820Z,2.00
2023-03-07T20:25:54.687Z,2.00
2023-03-07T20:28:49.715Z,2.00
2023-03-07T20:31:13.283Z,2.00
2023-03-07T20:33:41.141Z,2.00
2023-03-07T20:36:09.291Z,2.00
2023-03-07T20:38:43.103Z,1.90
2023-03-07T20:41:13.981Z,1.80
2023-03-07T20:43:40.872Z,1.80
2023-03-07T20:46:13.685Z,1.80
2023-03-07T20:48:40.937Z,1.80
2023-03-07T20:51:20.900Z,1.80
2023-03-07T20:53:56.112Z,1.80
2023-03-07T20:56:23.667Z,1.90
2023-03-07T20:58:50.363Z,1.90
2023-03-07T21:01:18.118Z,1.90
2023-03-07T21:03:45.411Z,1.90
2023-03-07T21:06:12.088Z,1.80
2023-03-07T21:08:39.050Z,1.80
2023-03-07T21:11:08.820Z,1.70
2023-03-07T21:13:36.794Z,1.70
2023-03-07T21:16:09.968Z,1.70
2023-03-07T21:18:37.003Z,1.80
2023-03-07T21:21:11.979Z,1.90
2023-03-07T21:23:38.754Z,2.00
2023-03-07T21:26:09.849Z,2.10
2023-03-07T21:28:36.974Z,2.20
2023-03-07T21:31:05.333Z,2.20
2023-03-07T21:33:32.983Z,2.30
2023-03-07T21:35:59.743Z,2.30
2023-03-07T21:38:26.645Z,2.30
2023-03-07T21:40:53.834Z,2.40
2023-03-07T21:43:20.955Z,2.40
2023-03-07T21:45:49.832Z,2.40
2023-03-07T21:48:19.507Z,2.40
2023-03-07T21:50:47.222Z,2.50
2023-03-07T21:53:13.902Z,2.50
2023-03-07T21:55:40.656Z,2.50
2023-03-07T21:58:07.355Z,2.50
2023-03-07T22:00:34.006Z,2.60
2023-03-07T22:03:00.698Z,2.50
2023-03-07T22:05:27.322Z,2.50
2023-03-07T22:07:55.978Z,2.40
2023-03-07T22:10:22.712Z,2.40
2023-03-07T22:12:55.333Z,2.40
2023-03-07T22:15:21.954Z,2.40
2023-03-07T22:17:48.636Z,2.50
2023-03-07T22:20:15.334Z,2.50
2023-03-07T22:22:41.993Z,2.50
2023-03-07T22:25:08.892Z,2.40
2023-03-07T22:27:37.630Z,2.40
2023-03-07T22:30:06.935Z,2.40
2023-03-07T22:32:33.661Z,2.50
2023-03-07T22:35:00.995Z,2.50
2023-03-07T22:37:28.015Z,2.50
2023-03-07T22:39:54.676Z,2.50
2023-03-07T22:42:25.488Z,2.50
2023-03-07T22:44:52.131Z,2.50
2023-03-07T22:47:18.741Z,2.60
2023-03-07T22:49:47.508Z,2.60
2023-03-07T22:52:14.192Z,2.70
2023-03-07T22:54:41.153Z,2.70
2023-03-07T22:57:07.960Z,2.70
2023-03-07T22:59:34.868Z,2.70
2023-03-07T23:02:01.551Z,2.80
2023-03-07T23:04:30.556Z,2.90
2023-03-07T23:06:57.217Z,3.00
2023-03-07T23:09:26.251Z,3.10
2023-03-07T23:11:52.999Z,3.20
2023-03-07T23:14:19.890Z,3.40
2023-03-07T23:16:46.568Z,3.60
2023-03-07T23:19:15.441Z,3.90
2023-03-07T23:21:42.228Z,4.10
2023-03-07T23:24:10.256Z,4.30
2023-03-07T23:26:37.881Z,4.20
2023-03-07T23:29:10.005Z,4.10
2023-03-07T23:31:37.700Z,3.90
2023-03-07T23:34:06.488Z,3.80
2023-03-07T23:36:33.178Z,3.70
2023-03-07T23:39:08.414Z,3.70
2023-03-07T23:41:35.059Z,3.70
2023-03-07T23:44:02.203Z,3.70
2023-03-07T23:46:29.392Z,3.70
2023-03-07T23:48:56.428Z,3.70
2023-03-07T23:51:23.921Z,3.70
2023-03-07T23:53:50.745Z,3.70
2023-03-07T23:56:22.672Z,3.70
2023-03-07T23:58:50.474Z,3.70
